Data for 09/22/2016

Time Sea-Level Adjusted Pressure Absolute Pressure Temperature Relative Humidity Dew Point   
(mb) (inHg) (mb) (inHg) (C) (F) (%) (C) (F)
00:05 1018 30.06 847 25.01 7.9 46.1 88 6 42.8
00:10 1018 30.06 847 25.01 7.8 46 89 6 42.8
00:15 1018 30.06 847 25.01 7.7 45.8 89 6 42.9
00:20 1018 30.06 847 25.01 7.7 45.9 88 5.9 42.5
00:25 1018 30.06 847 25.01 7.8 46 88 5.9 42.7
00:30 1018 30.06 847 25.01 7.8 46 88 5.9 42.6
00:35 1017 30.03 847 25.01 7.7 45.9 88 5.8 42.5
00:40 1017 30.03 847 25.01 7.7 45.9 88 5.9 42.6
00:45 1017 30.03 847 25.01 7.7 45.8 88 5.8 42.5
00:50 1017 30.03 847 25.01 7.7 45.9 88 5.9 42.6
00:55 1017 30.03 846 24.98 7.8 46 87 5.8 42.5
01:00 1017 30.03 846 24.98 7.9 46.1 87 5.8 42.5
01:05 1017 30.03 846 24.98 7.9 46.2 87 5.8 42.5
01:10 1017 30.03 846 24.98 7.9 46.3 86 5.8 42.4
01:15 1017 30.03 846 24.98 8 46.4 86 5.7 42.3
01:20 1017 30.03 847 25.01 8 46.4 86 5.8 42.4
01:25 1017 30.03 847 25.01 8.1 46.5 86 5.8 42.5
01:30 1017 30.03 846 24.98 8.1 46.6 85 5.8 42.4
01:35 1017 30.03 846 24.98 8.1 46.6 86 5.8 42.5
01:40 1017 30.03 846 24.98 8 46.5 86 5.8 42.5
01:45 1017 30.03 846 24.98 8 46.4 87 5.9 42.7
01:50 1017 30.03 846 24.98 7.9 46.3 87 5.9 42.7
01:55 1017 30.03 846 24.98 7.9 46.2 87 5.9 42.6
02:00 1017 30.03 846 24.98 7.9 46.2 87 5.9 42.7
02:05 1017 30.03 846 24.98 7.8 46.1 87 5.9 42.6
02:10 1017 30.03 846 24.98 7.9 46.1 88 5.9 42.7
02:15 1017 30.03 846 24.98 7.8 46 88 5.9 42.7
02:20 1017 30.03 846 24.98 7.8 46.1 87 5.8 42.4
02:25 1017 30.03 846 24.98 7.8 46.1 87 5.8 42.5
02:30 1017 30.03 846 24.98 7.8 46.1 87 5.8 42.4
02:35 1016 30 846 24.98 7.9 46.2 86 5.8 42.4
02:40 1016 30 846 24.98 7.8 46.1 87 5.7 42.3
02:45 1017 30.03 846 24.98 7.8 46.1 87 5.8 42.4
02:50 1017 30.03 846 24.98 7.9 46.2 85 5.6 42.1
02:55 1016 30 846 24.98 7.9 46.2 86 5.8 42.4
03:00 1016 30 846 24.98 7.9 46.1 87 5.9 42.6
03:05 1016 30 846 24.98 7.8 46 87 5.8 42.5
03:10 1016 30 846 24.98 7.8 46 87 5.8 42.5
03:15 1016 30 846 24.98 7.8 46 87 5.8 42.4
03:20 1016 30 846 24.98 7.8 46 88 5.9 42.6
03:25 1016 30 846 24.98 7.7 45.9 88 5.8 42.5
03:30 1016 30 846 24.98 7.7 45.9 88 5.9 42.5
03:35 1016 30 846 24.98 7.7 45.9 88 5.9 42.6
03:40 1016 30 845 24.95 7.7 45.8 87 5.7 42.3
03:45 1016 30 846 24.98 7.7 45.9 88 5.9 42.5
03:50 1016 30 845 24.95 7.7 45.8 88 5.8 42.4
03:55 1016 30 845 24.95 7.7 45.8 88 5.8 42.5
04:00 1016 30 845 24.95 7.6 45.8 88 5.8 42.5
04:05 1016 30 845 24.95 7.6 45.7 88 5.7 42.3
04:10 1016 30 845 24.95 7.6 45.7 88 5.8 42.5
04:15 1016 30 845 24.95 7.6 45.8 88 5.8 42.4
04:20 1016 30 845 24.95 7.7 45.8 88 5.8 42.4
04:25 1016 30 845 24.95 7.7 45.8 87 5.7 42.3
04:30 1016 30 845 24.95 7.7 45.9 87 5.7 42.3
04:35 1016 30 845 24.95 7.7 45.9 87 5.7 42.3
04:40 1016 30 845 24.95 7.8 46 87 5.7 42.2
04:45 1015 29.97 845 24.95 7.8 46 87 5.7 42.3
04:50 1015 29.97 844 24.92 7.8 46 87 5.7 42.2
04:55 1015 29.97 844 24.92 7.8 46 87 5.7 42.3
05:00 1015 29.97 844 24.92 7.8 46 87 5.7 42.3
05:05 1015 29.97 844 24.92 7.8 46 87 5.8 42.4
05:10 1015 29.97 844 24.92 7.7 45.9 87 5.7 42.3
05:15 1015 29.97 844 24.92 7.8 46 86 5.6 42.1
05:20 1015 29.97 845 24.95 7.8 46.1 86 5.7 42.3
05:25 1015 29.97 845 24.95 7.8 46.1 86 5.6 42.2
05:30 1015 29.97 845 24.95 7.9 46.2 85 5.5 41.8
05:35 1015 29.97 844 24.92 8 46.4 84 5.5 41.9
05:40 1015 29.97 845 24.95 8 46.3 85 5.5 42
05:45 1016 30 845 24.95 7.9 46.3 85 5.7 42.2
05:50 1016 30 845 24.95 7.9 46.2 85 5.5 41.9
05:55 1016 30 845 24.95 7.9 46.2 85 5.6 42.1
06:00 1016 30 845 24.95 7.9 46.2 86 5.6 42.1
06:05 1016 30 845 24.95 7.8 46.1 85 5.6 42
06:10 1016 30 845 24.95 7.9 46.1 85 5.6 42
06:15 1016 30 845 24.95 7.9 46.1 88 5.9 42.7
06:20 1016 30 845 24.95 7.6 45.6 91 6.1 43
06:25 1016 30 845 24.95 7.3 45.1 92 6 42.8
06:30 1016 30 845 24.95 7.3 45.1 92 6 42.9
06:35 1016 30 845 24.95 7.3 45.1 92 6.1 42.9
06:40 1016 30 845 24.95 7.2 45 92 6.1 43
06:45 1016 30 845 24.95 7.3 45.2 93 6.2 43.2
06:50 1016 30 845 24.95 7.4 45.2 92 6.2 43.2
06:55 1016 30 845 24.95 7.3 45.2 93 6.2 43.2
07:00 1016 30 845 24.95 7.3 45.2 93 6.2 43.1
07:05 1016 30 845 24.95 7.3 45.1 93 6.2 43.1
07:10 1016 30 845 24.95 7.3 45.1 92 6.1 43
07:15 1015 29.97 845 24.95 7.4 45.3 92 6.1 43
07:20 1015 29.97 845 24.95 7.4 45.3 92 6.1 43
07:25 1015 29.97 845 24.95 7.4 45.3 91 6 42.9
07:30 1016 30 845 24.95 7.4 45.3 91 6 42.9
07:35 1016 30 845 24.95 7.5 45.4 91 6.1 42.9
07:40 1016 30 845 24.95 7.5 45.5 89 5.9 42.5
07:45 1015 29.97 845 24.95 7.6 45.6 88 5.7 42.3
07:50 1015 29.97 845 24.95 7.7 45.8 87 5.6 42.2
07:55 1015 29.97 844 24.92 7.7 45.9 87 5.7 42.2
08:00 1015 29.97 844 24.92 7.7 45.9 87 5.7 42.2
08:05 1015 29.97 844 24.92 7.8 46 87 5.7 42.2
08:10 1015 29.97 845 24.95 7.8 46 86 5.7 42.2
08:15 1015 29.97 844 24.92 7.9 46.1 86 5.7 42.2
08:20 1015 29.97 844 24.92 7.9 46.2 86 5.8 42.4
08:25 1016 30 845 24.95 7.9 46.3 86 5.8 42.4
08:30 1016 30 845 24.95 8.1 46.5 86 5.9 42.6
08:35 1016 30 845 24.95 8.1 46.6 85 5.8 42.5
08:40 1016 30 845 24.95 8.2 46.7 86 6 42.8
08:45 1016 30 845 24.95 8.2 46.7 86 5.9 42.7
08:50 1015 29.97 845 24.95 8.2 46.7 86 5.9 42.7
08:55 1015 29.97 845 24.95 8.3 46.9 86 6 42.8
09:00 1015 29.97 845 24.95 8.3 47 86 6.2 43.1
09:05 1015 29.97 844 24.92 8.4 47.1 85 6.1 42.9
09:10 1015 29.97 844 24.92 8.5 47.3 85 6.1 43
09:15 1015 29.97 845 24.95 8.6 47.4 85 6.1 43
09:20 1016 30 845 24.95 8.7 47.7 86 6.5 43.8
09:25 1016 30 845 24.95 8.8 47.8 87 6.6 43.9
09:30 1015 29.97 845 24.95 8.9 48 84 6.3 43.3
09:35 1015 29.97 844 24.92 9 48.2 83 6.3 43.3
09:40 1015 29.97 844 24.92 9.2 48.5 86 6.9 44.4
09:45 1015 29.97 844 24.92 9.1 48.3 86 6.9 44.4
09:50 1015 29.97 845 24.95 9 48.1 86 6.8 44.2
09:55 1016 30 845 24.95 9.1 48.3 85 6.7 44
10:00 1016 30 845 24.95 8.9 48 86 6.6 44
10:05 1016 30 845 24.95 9 48.1 85 6.7 44
10:10 1016 30 845 24.95 9 48.2 85 6.7 44
10:15 1015 29.97 845 24.95 9 48.2 85 6.6 43.9
10:20 1015 29.97 845 24.95 9.2 48.5 85 6.7 44.1
10:25 1015 29.97 845 24.95 9.3 48.7 85 6.8 44.3
10:30 1015 29.97 845 24.95 9.2 48.6 85 6.8 44.2
10:35 1016 30 845 24.95 9.3 48.7 85 6.8 44.3
10:40 1016 30 845 24.95 9.3 48.7 85 6.8 44.3
10:45 1016 30 845 24.95 9 48.2 84 6.5 43.7
10:50 1016 30 845 24.95 9 48.2 85 6.6 43.9
10:55 1016 30 845 24.95 9.2 48.5 85 6.7 44.1
11:00 1016 30 845 24.95 9.3 48.7 83 6.6 43.8
11:05 1015 29.97 845 24.95 9.3 48.8 83 6.6 43.9
11:10 1016 30 845 24.95 9.3 48.7 83 6.6 43.9
11:15 1016 30 845 24.95 9.5 49.2 82 6.6 44
11:20 1016 30 845 24.95 10.2 50.3 78 6.6 43.8
11:25 1016 30 845 24.95 10.6 51 78 6.8 44.3
11:30 1016 30 845 24.95 10.7 51.2 78 7.1 44.8
11:35 1016 30 845 24.95 10.7 51.3 77 6.9 44.4
11:40 1016 30 845 24.95 10.6 51.2 76 6.7 44
11:45 1016 30 845 24.95 10.5 50.9 78 6.7 44.1
11:50 1016 30 845 24.95 10.4 50.8 78 6.7 44.1
11:55 1016 30 845 24.95 10.2 50.4 79 6.8 44.2
12:00 1016 30 845 24.95 10.2 50.4 79 6.8 44.2
12:05 1016 30 845 24.95 10.2 50.4 80 6.9 44.4
12:10 1016 30 845 24.95 10.2 50.4 80 7 44.6
12:15 1016 30 845 24.95 10.2 50.4 80 7 44.5
12:20 1016 30 845 24.95 10.4 50.8 78 6.9 44.4
12:25 1016 30 845 24.95 10.4 50.6 79 7 44.5
12:30 1016 30 845 24.95 10.2 50.3 80 6.9 44.4
12:35 1016 30 845 24.95 10.2 50.3 78 6.5 43.7
12:40 1016 30 845 24.95 10.2 50.4 79 6.8 44.2
12:45 1015 29.97 845 24.95 10.2 50.4 78 6.6 43.9
12:50 1015 29.97 845 24.95 10.3 50.6 78 6.8 44.2
12:55 1016 30 845 24.95 10.4 50.7 79 7 44.5
13:00 1016 30 845 24.95 10.3 50.6 79 6.9 44.4
13:05 1016 30 845 24.95 10.4 50.7 79 7 44.6
13:10 1016 30 845 24.95 10.5 50.9 79 7 44.6
13:15 1016 30 845 24.95 10.6 51.1 79 7.1 44.8
13:20 1015 29.97 845 24.95 10.7 51.3 80 7.3 45.2
13:25 1015 29.97 845 24.95 10.6 51.1 80 7.3 45.2
13:30 1015 29.97 845 24.95 10.5 50.9 81 7.3 45.2
13:35 1015 29.97 845 24.95 10.4 50.7 82 7.4 45.4
13:40 1015 29.97 845 24.95 10.4 50.7 81 7.3 45.1
13:45 1015 29.97 845 24.95 10.4 50.6 81 7.3 45.2
13:50 1015 29.97 845 24.95 10.4 50.6 81 7.2 44.9
13:55 1015 29.97 845 24.95 10.4 50.7 81 7.3 45.2
14:00 1015 29.97 845 24.95 10.5 50.9 80 7.2 45
14:05 1015 29.97 845 24.95 10.5 50.8 80 7.2 45
14:10 1015 29.97 844 24.92 10.5 50.8 79 7.1 44.7
14:15 1015 29.97 844 24.92 10.5 50.8 80 7.2 44.9
14:20 1015 29.97 844 24.92 10.5 50.8 80 7.2 45
14:25 1015 29.97 844 24.92 10.4 50.8 80 7.1 44.8
14:30 1015 29.97 844 24.92 10.4 50.7 79 6.9 44.3
14:35 1015 29.97 844 24.92 10.5 50.8 79 7.1 44.7
14:40 1015 29.97 844 24.92 10.5 50.9 79 7 44.7
14:45 1015 29.97 844 24.92 10.5 50.9 80 7.3 45.1
14:50 1015 29.97 844 24.92 10.6 51.1 79 7.2 44.9
14:55 1015 29.97 844 24.92 10.7 51.2 79 7.2 44.9
15:00 1015 29.97 844 24.92 10.6 51 80 7.3 45.1
15:05 1015 29.97 844 24.92 10.3 50.6 81 7.2 45
15:10 1015 29.97 844 24.92 10.5 50.8 81 7.3 45.1
15:15 1015 29.97 844 24.92 10.8 51.4 78 7 44.6
15:20 1015 29.97 844 24.92 10.8 51.4 79 7.3 45.1
15:25 1015 29.97 844 24.92 10.9 51.6 78 7.2 45
15:30 1015 29.97 844 24.92 10.8 51.4 78 7.1 44.8
15:35 1015 29.97 844 24.92 10.7 51.3 77 7 44.6
15:40 1015 29.97 844 24.92 10.7 51.2 78 7 44.7
15:45 1015 29.97 844 24.92 10.6 51.1 79 7.2 44.9
15:50 1015 29.97 844 24.92 10.6 51 78 6.9 44.4
15:55 1015 29.97 844 24.92 10.4 50.6 79 6.9 44.4
16:00 1015 29.97 844 24.92 10.3 50.6 79 7 44.5
16:05 1015 29.97 844 24.92 10.6 51.1 80 7.4 45.3
16:10 1015 29.97 844 24.92 10.8 51.5 78 7.2 45
16:15 1015 29.97 844 24.92 10.9 51.6 78 7.3 45.1
16:20 1014 29.94 844 24.92 10.8 51.4 80 7.4 45.3
16:25 1014 29.94 844 24.92 10.8 51.4 79 7.3 45.1
16:30 1014 29.94 844 24.92 10.6 51.1 78 6.9 44.5
16:35 1014 29.94 844 24.92 10.4 50.7 79 7 44.6
16:40 1014 29.94 844 24.92 10.6 51 79 7.1 44.8
16:45 1014 29.94 844 24.92 10.6 51.1 79 7.2 45
16:50 1014 29.94 844 24.92 10.6 51.1 80 7.4 45.2
16:55 1014 29.94 844 24.92 10.5 50.9 81 7.4 45.2
17:00 1014 29.94 844 24.92 10.5 50.8 81 7.3 45.2
17:05 1014 29.94 844 24.92 10.5 51 80 7.2 45
17:10 1014 29.94 844 24.92 10.6 51 80 7.3 45.2
17:15 1015 29.97 844 24.92 10.6 51 80 7.3 45.1
17:20 1014 29.94 844 24.92 10.6 51 80 7.2 45
17:25 1014 29.94 844 24.92 10.5 50.9 80 7.3 45.2
17:30 1014 29.94 843 24.89 10.5 50.9 80 7.3 45.1
17:35 1014 29.94 843 24.89 10.4 50.7 81 7.3 45.2
17:40 1014 29.94 843 24.89 10.4 50.8 80 7.2 45
17:45 1014 29.94 844 24.92 10.5 50.9 79 7.1 44.7
17:50 1015 29.97 844 24.92 10.5 51 80 7.2 45
17:55 1015 29.97 844 24.92 10.5 50.9 79 7.1 44.7
18:00 1015 29.97 844 24.92 10.5 50.9 79 7.1 44.8
18:05 1015 29.97 844 24.92 10.5 50.9 80 7.2 44.9
18:10 1015 29.97 844 24.92 10.6 51 79 7.1 44.7
18:15 1015 29.97 844 24.92 10.7 51.2 79 7.3 45.1
18:20 1015 29.97 844 24.92 10.8 51.4 80 7.5 45.5
18:25 1014 29.94 844 24.92 10.8 51.4 81 7.6 45.7
18:30 1015 29.97 844 24.92 10.7 51.3 81 7.6 45.6
18:35 1015 29.97 844 24.92 10.6 51.1 82 7.7 45.9
18:40 1015 29.97 844 24.92 10.6 51 83 7.8 46.1
18:45 1015 29.97 844 24.92 10.5 50.8 84 7.9 46.2
18:50 1015 29.97 844 24.92 10.4 50.6 85 8 46.4
18:55 1015 29.97 844 24.92 10.3 50.5 86 8.1 46.6
19:00 1015 29.97 844 24.92 10.3 50.5 86 8.1 46.5
19:05 1015 29.97 844 24.92 10.2 50.4 86 8 46.4
19:10 1015 29.97 844 24.92 10 50 88 8 46.5
19:15 1015 29.97 844 24.92 9.9 49.8 89 8.1 46.6
19:20 1015 29.97 844 24.92 9.9 49.8 89 8.1 46.6
19:25 1014 29.94 844 24.92 9.7 49.5 90 8.1 46.6
19:30 1014 29.94 844 24.92 9.7 49.5 90 8.2 46.7
19:35 1014 29.94 844 24.92 9.7 49.5 90 8.2 46.7
19:40 1014 29.94 844 24.92 9.6 49.3 91 8.2 46.7
19:45 1014 29.94 844 24.92 9.6 49.2 91 8.1 46.6
19:50 1014 29.94 844 24.92 9.5 49.2 91 8.1 46.6
19:55 1014 29.94 844 24.92 9.6 49.2 91 8.2 46.7
20:00 1015 29.97 844 24.92 9.5 49.1 91 8.1 46.6
20:05 1014 29.94 844 24.92 9.4 48.9 92 8.1 46.6
20:10 1015 29.97 844 24.92 9.5 49.1 92 8.2 46.8
20:15 1015 29.97 844 24.92 9.6 49.2 92 8.3 46.9
20:20 1015 29.97 844 24.92 9.6 49.2 91 8.2 46.7
20:25 1015 29.97 844 24.92 9.6 49.3 91 8.2 46.7
20:30 1015 29.97 844 24.92 9.6 49.3 89 7.9 46.3
20:35 1015 29.97 844 24.92 9.5 49.1 89 7.9 46.2
20:40 1015 29.97 844 24.92 9.5 49.1 89 7.8 46
20:45 1015 29.97 844 24.92 9.4 49 89 7.7 45.8
20:50 1014 29.94 844 24.92 9.4 48.9 89 7.6 45.8
20:55 1014 29.94 843 24.89 9.4 48.9 90 7.9 46.2
21:00 1014 29.94 844 24.92 9.5 49 91 8.1 46.5
21:05 1014 29.94 844 24.92 9.4 48.9 91 8.1 46.5
21:10 1015 29.97 844 24.92 9.3 48.8 92 8 46.5
21:15 1015 29.97 844 24.92 9.3 48.8 92 8.1 46.5
21:20 1014 29.94 844 24.92 9.4 48.8 92 8.1 46.5
21:25 1014 29.94 844 24.92 9.3 48.7 91 7.9 46.2
21:30 1014 29.94 843 24.89 9.3 48.8 88 7.5 45.5
21:35 1014 29.94 843 24.89 9.4 48.9 88 7.5 45.6
21:40 1014 29.94 843 24.89 9.4 48.9 88 7.4 45.4
21:45 1014 29.94 844 24.92 9.4 49 87 7.4 45.4
21:50 1015 29.97 844 24.92 9.5 49 87 7.4 45.4
21:55 1015 29.97 844 24.92 9.5 49 86 7.2 44.9
22:00 1015 29.97 844 24.92 9.6 49.2 85 7.1 44.8
22:05 1015 29.97 844 24.92 9.6 49.2 85 7.2 44.9
22:10 1015 29.97 844 24.92 9.5 49.1 85 7.1 44.8
22:15 1015 29.97 844 24.92 9.5 49 85 7.1 44.8
22:20 1015 29.97 844 24.92 9.5 49.1 85 7 44.7
22:25 1015 29.97 844 24.92 9.5 49.1 84 7 44.7
22:30 1015 29.97 844 24.92 9.5 49.1 85 7.1 44.8
22:35 1015 29.97 844 24.92 9.5 49.1 85 7.1 44.7
22:40 1015 29.97 844 24.92 9.5 49.1 85 7.2 44.9
22:45 1015 29.97 844 24.92 9.5 49.1 85 7.1 44.9
22:50 1015 29.97 844 24.92 9.5 49 85 7.1 44.9
22:55 1015 29.97 844 24.92 9.5 49 85 7.1 44.8
23:00 1015 29.97 844 24.92 9.5 49 85 7.2 44.9
23:05 1015 29.97 844 24.92 9.5 49.1 85 7.1 44.8
23:10 1015 29.97 844 24.92 9.5 49.2 84 7 44.6
23:15 1015 29.97 844 24.92 9.7 49.4 83 7 44.5
23:20 1015 29.97 844 24.92 9.7 49.5 83 7.1 44.7
23:25 1015 29.97 844 24.92 9.7 49.5 84 7.1 44.8
23:30 1015 29.97 844 24.92 9.7 49.4 84 7.2 44.9
23:35 1015 29.97 844 24.92 9.5 49.2 88 7.6 45.7
23:40 1015 29.97 844 24.92 9.3 48.7 89 7.6 45.8
23:45 1015 29.97 844 24.92 9.2 48.6 90 7.7 45.8
23:50 1015 29.97 844 24.92 9.2 48.5 90 7.7 45.9
23:55 1015 29.97 844 24.92 9.2 48.5 91 7.8 46
24:00 1014 29.94 844 24.92 9.1 48.4 92 7.8 46.1